createdAt,value
2019-01-26T00:02:09.647Z,94.40
2019-01-26T00:04:38.831Z,94.40
2019-01-26T00:07:07.990Z,94.20
2019-01-26T00:09:37.133Z,94.30
2019-01-26T00:12:06.277Z,94.40
2019-01-26T00:14:35.553Z,94.20
2019-01-26T00:17:04.705Z,94.30
2019-01-26T00:19:33.862Z,94.10
2019-01-26T00:22:03.021Z,94.40
2019-01-26T00:24:32.198Z,94.40
2019-01-26T00:27:01.402Z,94.50
2019-01-26T00:29:30.597Z,94.40
2019-01-26T00:31:59.737Z,94.60
2019-01-26T00:34:28.942Z,94.40
2019-01-26T00:36:58.109Z,94.30
2019-01-26T00:39:27.314Z,94.40
2019-01-26T00:41:56.454Z,94.40
2019-01-26T00:44:25.593Z,94.50
2019-01-26T00:46:54.780Z,94.50
2019-01-26T00:49:23.985Z,94.50
2019-01-26T00:51:53.182Z,94.50
2019-01-26T00:54:22.393Z,94.60
2019-01-26T00:56:51.569Z,94.60
2019-01-26T00:59:20.726Z,94.50
2019-01-26T01:01:49.863Z,94.50
2019-01-26T01:04:19.026Z,94.50
2019-01-26T01:06:48.318Z,94.70
2019-01-26T01:09:37.960Z,94.60
2019-01-26T01:12:07.345Z,94.40
2019-01-26T01:14:36.509Z,94.40
2019-01-26T01:17:05.690Z,94.60
2019-01-26T01:19:34.834Z,94.40
2019-01-26T01:22:04.101Z,94.40
2019-01-26T01:24:33.250Z,94.40
2019-01-26T01:27:02.397Z,94.60
2019-01-26T01:29:31.606Z,94.50
2019-01-26T01:32:00.769Z,94.50
2019-01-26T01:34:29.976Z,94.60
2019-01-26T01:36:59.355Z,94.50
2019-01-26T01:39:28.777Z,94.60
2019-01-26T01:41:58.120Z,94.70
2019-01-26T01:44:27.437Z,94.60
2019-01-26T01:46:56.585Z,94.70
2019-01-26T01:49:25.910Z,94.70
2019-01-26T01:51:55.554Z,94.50
2019-01-26T01:54:24.706Z,94.90
2019-01-26T01:56:53.839Z,94.40
2019-01-26T01:59:23.013Z,94.10
2019-01-26T02:01:52.154Z,94.40
2019-01-26T02:04:21.310Z,94.30
2019-01-26T02:06:50.558Z,94.30
2019-01-26T02:09:19.733Z,94.30
2019-01-26T02:11:48.878Z,94.50
2019-01-26T02:14:18.073Z,94.30
2019-01-26T02:16:50.197Z,94.30
2019-01-26T02:19:18.173Z,94.30
2019-01-26T02:21:47.326Z,94.20
2019-01-26T02:24:16.525Z,94.30
2019-01-26T02:26:45.752Z,94.30
2019-01-26T02:29:15.055Z,94.20
2019-01-26T02:31:44.181Z,94.10
2019-01-26T02:34:13.321Z,94.10
2019-01-26T02:36:42.594Z,94.10
2019-01-26T02:39:11.762Z,93.90
2019-01-26T02:41:40.901Z,94.10
2019-01-26T02:44:10.102Z,94.00
2019-01-26T02:46:39.247Z,93.90
2019-01-26T02:49:08.489Z,94.10
2019-01-26T02:51:37.636Z,94.00
2019-01-26T02:54:06.778Z,94.20
2019-01-26T02:56:35.969Z,94.40
2019-01-26T02:59:05.237Z,94.30
2019-01-26T03:01:34.758Z,94.00
2019-01-26T03:04:04.386Z,93.90
2019-01-26T03:06:33.589Z,93.30
2019-01-26T03:09:03.714Z,93.60
2019-01-26T03:11:32.935Z,93.30
2019-01-26T03:14:02.200Z,93.20
2019-01-26T03:16:31.698Z,92.90
2019-01-26T03:19:00.838Z,92.90
2019-01-26T03:21:30.046Z,93.20
2019-01-26T03:23:59.180Z,93.40
2019-01-26T03:26:28.346Z,92.90
2019-01-26T03:28:57.506Z,92.90
2019-01-26T03:31:26.702Z,92.90
2019-01-26T03:33:56.014Z,92.90
2019-01-26T03:36:25.199Z,92.90
2019-01-26T03:38:54.769Z,92.60
2019-01-26T03:41:24.125Z,92.60
2019-01-26T03:43:53.445Z,92.60
2019-01-26T03:46:22.827Z,92.30
2019-01-26T03:48:51.965Z,92.50
2019-01-26T03:51:21.329Z,92.50
2019-01-26T03:53:50.475Z,92.90
2019-01-26T03:56:19.673Z,93.10
2019-01-26T03:58:48.858Z,92.80
2019-01-26T04:01:18.018Z,92.50
2019-01-26T04:03:47.189Z,92.50
2019-01-26T04:06:16.706Z,92.40
2019-01-26T04:08:45.857Z,92.10
2019-01-26T04:11:15.023Z,92.00
2019-01-26T04:13:44.345Z,92.40
2019-01-26T04:16:13.596Z,92.30
2019-01-26T04:18:42.811Z,92.20
2019-01-26T04:21:12.008Z,92.10
2019-01-26T04:23:41.193Z,92.40
2019-01-26T04:26:10.480Z,92.30
2019-01-26T04:28:39.753Z,92.30
2019-01-26T04:31:08.937Z,92.40
2019-01-26T04:33:38.087Z,92.30
2019-01-26T04:36:07.756Z,92.30
2019-01-26T04:38:36.952Z,91.90
2019-01-26T04:41:06.220Z,92.00
2019-01-26T04:43:35.369Z,92.10
2019-01-26T04:46:04.545Z,91.90
2019-01-26T04:48:33.731Z,91.70
2019-01-26T04:51:02.902Z,91.70
2019-01-26T04:53:32.118Z,91.70
2019-01-26T04:56:01.338Z,92.00
2019-01-26T04:58:30.497Z,91.80
2019-01-26T05:00:59.711Z,91.50
2019-01-26T05:03:28.846Z,92.10
2019-01-26T05:05:58.004Z,92.10
2019-01-26T05:08:27.321Z,91.50
2019-01-26T05:10:56.466Z,91.80
2019-01-26T05:13:25.637Z,91.80
2019-01-26T05:15:54.813Z,91.70
2019-01-26T05:18:24.158Z,91.60
2019-01-26T05:20:53.322Z,91.70
2019-01-26T05:23:22.491Z,91.80
2019-01-26T05:25:51.636Z,91.40
2019-01-26T05:28:20.781Z,91.50
2019-01-26T05:30:49.969Z,91.20
2019-01-26T05:33:19.110Z,91.50
2019-01-26T05:35:48.255Z,91.60
2019-01-26T05:38:17.425Z,91.20
2019-01-26T05:40:46.563Z,91.10
2019-01-26T05:43:15.786Z,91.40
2019-01-26T05:45:44.988Z,91.60
2019-01-26T05:48:14.134Z,91.80
2019-01-26T05:50:43.361Z,91.90
2019-01-26T05:53:12.531Z,91.80
2019-01-26T05:55:41.709Z,91.40
2019-01-26T05:58:10.921Z,91.20
2019-01-26T06:00:40.142Z,91.80
2019-01-26T06:03:09.482Z,91.60
2019-01-26T06:05:38.637Z,91.50
2019-01-26T06:08:07.862Z,91.20
2019-01-26T06:10:37.064Z,91.30
2019-01-26T06:13:06.211Z,91.40
2019-01-26T06:15:35.390Z,92.00
2019-01-26T06:18:04.657Z,91.70
2019-01-26T06:20:33.790Z,91.70
2019-01-26T06:23:03.062Z,91.90
2019-01-26T06:25:33.166Z,91.80
2019-01-26T06:28:02.343Z,91.60
2019-01-26T06:30:31.599Z,91.60
2019-01-26T06:33:00.749Z,91.90
2019-01-26T06:35:29.913Z,91.30
2019-01-26T06:37:59.062Z,91.60
2019-01-26T06:40:28.310Z,91.60
2019-01-26T06:42:57.613Z,91.90
2019-01-26T06:45:26.789Z,91.70
2019-01-26T06:48:02.087Z,91.30
2019-01-26T06:50:28.316Z,91.40
2019-01-26T06:52:57.469Z,91.20
2019-01-26T06:55:26.725Z,91.10
2019-01-26T06:57:55.910Z,91.20
2019-01-26T07:00:29.459Z,91.30
2019-01-26T07:02:59.433Z,91.10
2019-01-26T07:05:39.316Z,91.30
2019-01-26T07:08:10.453Z,91.10
2019-01-26T07:10:39.662Z,91.10
2019-01-26T07:13:08.869Z,90.90
2019-01-26T07:15:38.165Z,90.80
2019-01-26T07:18:09.642Z,90.70
2019-01-26T07:20:38.461Z,90.50
2019-01-26T07:23:07.890Z,90.60
2019-01-26T07:25:37.018Z,90.70
2019-01-26T07:28:06.154Z,90.60
2019-01-26T07:30:35.446Z,90.60
2019-01-26T07:33:04.901Z,90.60
2019-01-26T07:35:34.114Z,90.40
2019-01-26T07:38:03.329Z,90.40
2019-01-26T07:40:32.573Z,90.40
2019-01-26T07:43:01.785Z,90.20
2019-01-26T07:45:31.292Z,90.00
2019-01-26T07:48:00.593Z,90.00
2019-01-26T07:50:29.801Z,89.90
2019-01-26T07:52:59.042Z,90.00
2019-01-26T07:55:28.357Z,89.10
2019-01-26T07:57:57.773Z,88.80
2019-01-26T08:00:27.379Z,89.20
2019-01-26T08:03:02.625Z,88.90
2019-01-26T08:05:31.953Z,89.40
2019-01-26T08:08:01.322Z,89.50
2019-01-26T08:10:30.677Z,89.30
2019-01-26T08:12:59.877Z,88.90
2019-01-26T08:15:34.501Z,89.20
2019-01-26T08:18:04.589Z,89.00
2019-01-26T08:20:33.722Z,88.70
2019-01-26T08:23:03.215Z,88.40
2019-01-26T08:26:01.157Z,88.60
2019-01-26T08:28:30.430Z,88.20
2019-01-26T08:30:59.801Z,88.10
2019-01-26T08:33:29.306Z,88.30
2019-01-26T08:35:58.505Z,88.30
2019-01-26T08:38:28.904Z,88.00
2019-01-26T08:41:01.401Z,88.00
2019-01-26T08:43:30.573Z,87.90
2019-01-26T08:45:59.958Z,87.70
2019-01-26T08:48:31.334Z,87.10
2019-01-26T08:51:00.166Z,87.90
2019-01-26T08:53:29.374Z,87.90
2019-01-26T08:55:58.523Z,88.20
2019-01-26T08:58:27.730Z,88.80
2019-01-26T09:00:56.950Z,88.10
2019-01-26T09:03:38.673Z,88.00
2019-01-26T09:06:11.353Z,88.60
2019-01-26T09:08:40.486Z,88.20
2019-01-26T09:11:09.737Z,87.50
2019-01-26T09:13:39.170Z,87.60
2019-01-26T09:16:09.117Z,88.30
2019-01-26T09:18:38.950Z,88.10
2019-01-26T09:21:08.489Z,88.10
2019-01-26T09:23:37.657Z,88.00
2019-01-26T09:26:07.348Z,87.70
2019-01-26T09:28:36.907Z,88.20
2019-01-26T09:31:06.322Z,88.40
2019-01-26T09:33:35.514Z,87.70
2019-01-26T09:36:05.814Z,87.80
2019-01-26T09:38:35.158Z,88.10
2019-01-26T09:41:04.600Z,88.60
2019-01-26T09:43:33.939Z,88.90
2019-01-26T09:46:03.219Z,89.10
2019-01-26T09:48:32.441Z,89.10
2019-01-26T09:51:01.713Z,89.30
2019-01-26T09:53:30.895Z,89.40
2019-01-26T09:56:00.242Z,90.00
2019-01-26T09:58:29.517Z,90.20
2019-01-26T10:00:58.841Z,90.40
2019-01-26T10:03:28.154Z,90.80
2019-01-26T10:05:57.385Z,91.10
2019-01-26T10:08:26.709Z,92.70
2019-01-26T10:10:56.011Z,92.80
2019-01-26T10:13:25.245Z,94.10
2019-01-26T10:15:54.570Z,94.10
2019-01-26T10:18:23.866Z,94.50
2019-01-26T10:21:06.854Z,94.60
2019-01-26T10:23:36.101Z,94.90
2019-01-26T10:26:05.310Z,95.30
2019-01-26T10:28:34.517Z,95.70
2019-01-26T10:31:03.770Z,96.60
2019-01-26T10:33:33.001Z,97.40
2019-01-26T10:36:21.290Z,97.40
2019-01-26T10:39:00.441Z,97.80
2019-01-26T10:41:48.022Z,98.30
2019-01-26T10:44:28.605Z,98.10
2019-01-26T10:46:57.964Z,98.40
2019-01-26T10:49:27.281Z,98.50
2019-01-26T10:51:56.482Z,99.10
2019-01-26T10:54:25.609Z,99.10
2019-01-26T10:56:54.850Z,99.10
2019-01-26T10:59:24.186Z,99.60
2019-01-26T11:01:53.346Z,99.10
2019-01-26T11:04:45.414Z,99.00
2019-01-26T11:07:22.581Z,99.50
2019-01-26T11:09:51.782Z,99.20
2019-01-26T11:12:21.002Z,99.10
2019-01-26T11:14:56.274Z,98.80
2019-01-26T11:17:36.269Z,99.20
2019-01-26T11:20:07.102Z,98.80
2019-01-26T11:22:36.358Z,98.70
2019-01-26T11:25:06.833Z,98.20
2019-01-26T11:27:35.981Z,97.50
2019-01-26T11:30:06.661Z,98.00
2019-01-26T11:32:35.854Z,97.20
2019-01-26T11:35:05.904Z,97.10
2019-01-26T11:37:35.055Z,97.40
2019-01-26T11:40:12.088Z,97.20
2019-01-26T11:42:41.270Z,97.40
2019-01-26T11:45:47.722Z,97.10
2019-01-26T11:48:23.390Z,96.50
2019-01-26T11:50:57.898Z,96.90
2019-01-26T11:53:27.118Z,96.20
2019-01-26T11:56:24.622Z,95.90
2019-01-26T11:58:53.781Z,95.60
2019-01-26T12:01:41.974Z,95.70
2019-01-26T12:04:28.778Z,94.70
2019-01-26T12:07:03.169Z,94.30
2019-01-26T12:09:32.465Z,95.50
2019-01-26T12:12:01.785Z,94.90
2019-01-26T12:14:30.938Z,94.80
2019-01-26T12:17:00.086Z,95.00
2019-01-26T12:19:29.874Z,94.40
2019-01-26T12:21:59.015Z,93.90
2019-01-26T12:24:28.219Z,93.80
2019-01-26T12:26:57.377Z,93.90
2019-01-26T12:29:26.678Z,93.80
2019-01-26T12:31:56.154Z,93.60
2019-01-26T12:34:25.313Z,93.60
2019-01-26T12:36:54.474Z,93.50
2019-01-26T12:39:23.597Z,93.50
2019-01-26T12:41:52.729Z,93.50
2019-01-26T12:44:21.918Z,93.80
2019-01-26T12:46:51.174Z,93.80
2019-01-26T12:49:20.317Z,93.90
2019-01-26T12:51:49.485Z,93.90
2019-01-26T12:54:18.622Z,93.90
2019-01-26T12:56:49.046Z,94.00
2019-01-26T12:59:18.337Z,93.80
2019-01-26T13:01:47.466Z,93.80
2019-01-26T13:04:16.706Z,93.80
2019-01-26T13:06:45.892Z,93.70
2019-01-26T13:09:15.055Z,93.60
2019-01-26T13:11:45.176Z,93.70
2019-01-26T13:14:14.518Z,93.60
2019-01-26T13:16:43.679Z,93.40
2019-01-26T13:19:13.030Z,93.30
2019-01-26T13:21:42.158Z,93.30
2019-01-26T13:24:11.331Z,93.40
2019-01-26T13:26:40.582Z,93.60
2019-01-26T13:29:09.702Z,93.60
2019-01-26T13:31:38.889Z,93.70
2019-01-26T13:34:08.027Z,93.80
2019-01-26T13:36:37.153Z,93.90
2019-01-26T13:39:09.450Z,93.70
2019-01-26T13:41:39.090Z,93.80
2019-01-26T13:44:08.326Z,94.20
2019-01-26T13:46:37.577Z,95.30
2019-01-26T13:49:06.810Z,94.10
2019-01-26T13:51:35.941Z,94.20
2019-01-26T13:54:05.326Z,94.50
2019-01-26T13:56:34.526Z,95.20
2019-01-26T13:59:03.733Z,95.40
2019-01-26T14:01:32.938Z,95.20
2019-01-26T14:04:02.097Z,95.70
2019-01-26T14:06:31.330Z,96.00
2019-01-26T14:09:00.637Z,96.20
2019-01-26T14:11:29.886Z,96.60
2019-01-26T14:13:59.178Z,96.50
2019-01-26T14:16:28.469Z,96.70
2019-01-26T14:18:57.642Z,96.70
2019-01-26T14:21:26.827Z,96.70
2019-01-26T14:23:56.067Z,96.80
2019-01-26T14:26:25.258Z,96.40
2019-01-26T14:28:54.521Z,96.20
2019-01-26T14:31:23.718Z,96.10
2019-01-26T14:33:52.942Z,95.90
2019-01-26T14:36:22.084Z,95.90
2019-01-26T14:38:51.519Z,95.90
2019-01-26T14:41:20.805Z,95.80
2019-01-26T14:43:49.959Z,96.10
2019-01-26T14:46:19.261Z,96.00
2019-01-26T14:48:48.548Z,96.10
2019-01-26T14:51:18.271Z,96.30
2019-01-26T14:53:47.953Z,96.20
2019-01-26T14:56:17.298Z,96.20
2019-01-26T14:58:46.445Z,96.60
2019-01-26T15:01:15.713Z,96.30
2019-01-26T15:03:44.914Z,96.30
2019-01-26T15:06:14.094Z,96.40
2019-01-26T15:08:43.263Z,96.40
2019-01-26T15:11:12.394Z,96.40
2019-01-26T15:13:41.623Z,96.30
2019-01-26T15:16:10.909Z,96.60
2019-01-26T15:18:40.121Z,96.60
2019-01-26T15:21:09.286Z,96.70
2019-01-26T15:23:38.457Z,96.60
2019-01-26T15:26:07.684Z,96.40
2019-01-26T15:28:42.816Z,96.80
2019-01-26T15:31:07.700Z,97.30
2019-01-26T15:33:36.871Z,97.40
2019-01-26T15:36:09.086Z,97.30
2019-01-26T15:38:37.122Z,97.20
2019-01-26T15:41:06.268Z,97.00
2019-01-26T15:43:35.424Z,96.90
2019-01-26T15:46:04.697Z,97.00
2019-01-26T15:48:33.915Z,97.30
2019-01-26T15:51:03.190Z,97.50
2019-01-26T15:53:32.416Z,98.20
2019-01-26T15:56:01.666Z,98.30
2019-01-26T15:58:30.818Z,98.50
2019-01-26T16:00:59.988Z,98.20
2019-01-26T16:03:29.147Z,97.80
2019-01-26T16:05:58.294Z,97.40
2019-01-26T16:08:27.486Z,97.50
2019-01-26T16:10:56.669Z,97.10
2019-01-26T16:13:25.802Z,97.00
2019-01-26T16:15:55.062Z,97.10
2019-01-26T16:18:24.262Z,97.30
2019-01-26T16:20:53.430Z,97.30
2019-01-26T16:23:22.656Z,97.10
2019-01-26T16:25:51.902Z,97.10
2019-01-26T16:28:21.409Z,97.40
2019-01-26T16:30:50.784Z,97.60
2019-01-26T16:33:19.941Z,97.90
2019-01-26T16:35:49.202Z,97.70
2019-01-26T16:38:18.424Z,97.90
2019-01-26T16:40:47.660Z,97.70
2019-01-26T16:43:16.827Z,97.80
2019-01-26T16:45:46.131Z,97.70
2019-01-26T16:48:16.051Z,97.80
2019-01-26T16:50:45.237Z,98.00
2019-01-26T16:53:14.498Z,98.30
2019-01-26T16:55:43.686Z,99.40
2019-01-26T16:58:12.814Z,99.10
2019-01-26T17:00:47.040Z,99.20
2019-01-26T17:03:16.343Z,98.90
2019-01-26T17:05:45.529Z,98.90
2019-01-26T17:08:14.690Z,99.70
2019-01-26T17:10:43.943Z,99.90
2019-01-26T17:13:13.166Z,99.90
2019-01-26T17:15:42.306Z,99.90
2019-01-26T17:18:13.812Z,99.90
2019-01-26T17:20:43.396Z,99.80
2019-01-26T17:23:12.591Z,99.90
2019-01-26T17:25:41.765Z,99.90
2019-01-26T17:28:10.902Z,99.90
2019-01-26T17:30:41.534Z,99.90
2019-01-26T17:33:10.805Z,99.90
2019-01-26T17:35:39.977Z,99.90
2019-01-26T17:38:09.189Z,99.90
2019-01-26T17:40:38.334Z,99.90
2019-01-26T17:43:07.787Z,99.90
2019-01-26T17:45:36.916Z,99.90
2019-01-26T17:48:07.269Z,99.90
2019-01-26T17:50:42.068Z,99.90
2019-01-26T17:53:07.313Z,99.90
2019-01-26T17:55:36.611Z,99.70
2019-01-26T17:58:05.983Z,99.20
2019-01-26T18:00:46.972Z,98.90
2019-01-26T18:03:16.999Z,98.80
2019-01-26T18:05:46.149Z,98.80
2019-01-26T18:08:16.118Z,98.70
2019-01-26T18:10:45.296Z,98.90
2019-01-26T18:13:14.497Z,98.90
2019-01-26T18:15:43.658Z,98.80
2019-01-26T18:18:12.838Z,98.70
2019-01-26T18:20:42.054Z,98.70
2019-01-26T18:23:11.718Z,98.70
2019-01-26T18:25:41.741Z,98.70
2019-01-26T18:28:10.985Z,98.50
2019-01-26T18:30:41.453Z,98.20
2019-01-26T18:33:10.724Z,98.10
2019-01-26T18:35:39.883Z,98.10
2019-01-26T18:38:09.487Z,98.40
2019-01-26T18:40:38.696Z,98.10
2019-01-26T18:43:07.947Z,98.10
2019-01-26T18:45:37.245Z,98.00
2019-01-26T18:48:06.777Z,98.00
2019-01-26T18:50:37.879Z,97.90
2019-01-26T18:53:07.363Z,98.00
2019-01-26T18:55:36.518Z,98.20
2019-01-26T18:58:05.914Z,97.80
2019-01-26T19:00:38.197Z,97.80
2019-01-26T19:03:23.266Z,97.70
2019-01-26T19:05:54.394Z,97.60
2019-01-26T19:08:23.541Z,97.50
2019-01-26T19:10:52.830Z,97.40
2019-01-26T19:13:21.965Z,97.60
2019-01-26T19:15:51.182Z,97.50
2019-01-26T19:18:20.446Z,97.40
2019-01-26T19:20:49.830Z,97.50
2019-01-26T19:23:19.109Z,97.50
2019-01-26T19:25:48.298Z,97.50
2019-01-26T19:28:17.526Z,97.40
2019-01-26T19:30:46.766Z,97.40
2019-01-26T19:33:16.001Z,97.20
2019-01-26T19:35:45.154Z,97.20
2019-01-26T19:38:14.330Z,97.20
2019-01-26T19:40:43.508Z,97.20
2019-01-26T19:43:12.690Z,97.20
2019-01-26T19:45:41.878Z,97.10
2019-01-26T19:48:11.007Z,97.20
2019-01-26T19:50:40.146Z,97.10
2019-01-26T19:53:09.327Z,97.50
2019-01-26T19:55:38.442Z,97.10
2019-01-26T19:58:07.602Z,97.20
2019-01-26T20:00:36.842Z,97.00
2019-01-26T20:03:06.081Z,96.90
2019-01-26T20:05:35.214Z,96.90
2019-01-26T20:08:04.649Z,96.90
2019-01-26T20:10:33.882Z,97.00
2019-01-26T20:13:03.082Z,97.00
2019-01-26T20:15:32.322Z,97.00
2019-01-26T20:18:01.524Z,97.10
2019-01-26T20:20:32.705Z,97.20
2019-01-26T20:23:01.833Z,97.20
2019-01-26T20:25:31.138Z,97.00
2019-01-26T20:28:00.329Z,97.00
2019-01-26T20:30:31.108Z,97.00
2019-01-26T20:33:00.374Z,96.80
2019-01-26T20:35:29.717Z,96.90
2019-01-26T20:37:58.873Z,96.90
2019-01-26T20:40:28.149Z,97.00
2019-01-26T20:42:57.281Z,97.10
2019-01-26T20:45:27.641Z,97.00
2019-01-26T20:47:56.783Z,97.00
2019-01-26T20:50:25.913Z,97.10
2019-01-26T20:52:55.442Z,97.10
2019-01-26T20:55:24.570Z,97.00
2019-01-26T20:57:54.079Z,97.20
2019-01-26T21:00:27.927Z,97.30
2019-01-26T21:02:57.185Z,97.20
2019-01-26T21:05:26.491Z,97.30
2019-01-26T21:07:55.682Z,97.30
2019-01-26T21:10:26.827Z,97.30
2019-01-26T21:12:56.085Z,97.30
2019-01-26T21:15:25.233Z,97.30
2019-01-26T21:17:54.403Z,97.50
2019-01-26T21:20:24.778Z,97.30
2019-01-26T21:22:54.105Z,97.20
2019-01-26T21:25:23.481Z,97.20
2019-01-26T21:27:52.666Z,97.30
2019-01-26T21:30:26.481Z,97.30
2019-01-26T21:32:55.774Z,97.30
2019-01-26T21:35:25.749Z,97.30
2019-01-26T21:37:54.992Z,97.40
2019-01-26T21:40:26.562Z,97.40
2019-01-26T21:42:55.734Z,97.50
2019-01-26T21:45:24.987Z,97.50
2019-01-26T21:47:54.225Z,97.50
2019-01-26T21:50:25.425Z,97.70
2019-01-26T21:52:54.571Z,97.80
2019-01-26T21:55:23.787Z,97.80
2019-01-26T21:57:53.078Z,97.80
2019-01-26T22:00:27.489Z,97.90
2019-01-26T22:02:56.657Z,97.60
2019-01-26T22:05:25.828Z,97.60
2019-01-26T22:07:55.035Z,97.70
2019-01-26T22:10:24.334Z,97.80
2019-01-26T22:12:53.486Z,97.90
2019-01-26T22:15:23.465Z,98.00
2019-01-26T22:17:52.711Z,98.00
2019-01-26T22:20:23.693Z,98.10
2019-01-26T22:22:52.990Z,98.10
2019-01-26T22:25:22.515Z,98.10
2019-01-26T22:27:52.446Z,98.10
2019-01-26T22:30:26.886Z,98.20
2019-01-26T22:32:56.266Z,98.30
2019-01-26T22:35:25.626Z,98.20
2019-01-26T22:37:54.856Z,98.20
2019-01-26T22:40:29.311Z,98.10
2019-01-26T22:42:58.569Z,98.20
2019-01-26T22:45:28.011Z,98.00
2019-01-26T22:47:57.329Z,98.10
2019-01-26T22:50:26.658Z,98.10
2019-01-26T22:52:55.825Z,98.10
2019-01-26T22:55:25.249Z,98.10
2019-01-26T22:57:55.033Z,98.30
2019-01-26T23:00:58.590Z,98.30
2019-01-26T23:03:32.742Z,98.40
2019-01-26T23:06:33.461Z,98.50
2019-01-26T23:09:10.563Z,98.40
2019-01-26T23:12:02.080Z,98.50
2019-01-26T23:14:50.485Z,98.60
2019-01-26T23:17:55.486Z,98.60
2019-01-26T23:21:20.925Z,98.60
2019-01-26T23:24:18.738Z,98.60
2019-01-26T23:27:29.286Z,98.60
2019-01-26T23:30:45.421Z,98.70
2019-01-26T23:33:14.629Z,98.70
2019-01-26T23:35:43.973Z,98.70
2019-01-26T23:38:13.127Z,98.70
2019-01-26T23:40:42.300Z,98.40
2019-01-26T23:43:11.541Z,98.50
2019-01-26T23:45:40.690Z,98.50
2019-01-26T23:48:09.890Z,98.50
2019-01-26T23:50:39.067Z,98.60
2019-01-26T23:53:08.275Z,98.50
2019-01-26T23:55:37.476Z,98.50
2019-01-26T23:58:07.394Z,98.50
